createdAt,value
2022-08-05T00:00:16.509Z,1006.94
2022-08-05T00:01:20.646Z,1006.73
2022-08-05T00:02:16.096Z,1006.54
2022-08-05T00:03:16.068Z,1006.57
2022-08-05T00:04:16.027Z,1006.77
2022-08-05T00:06:03.134Z,1006.93
2022-08-05T00:06:29.133Z,1007.03
2022-08-05T00:07:27.039Z,1007.05
2022-08-05T00:08:32.511Z,1007.07
2022-08-05T00:09:19.598Z,1007.00
2022-08-05T00:10:15.952Z,1006.93
2022-08-05T00:11:20.697Z,1006.90
2022-08-05T00:12:15.924Z,1006.90
2022-08-05T00:13:18.687Z,1006.86
2022-08-05T00:14:16.925Z,1006.87
2022-08-05T00:15:56.051Z,1006.86
2022-08-05T00:16:15.871Z,1006.87
2022-08-05T00:17:18.761Z,1006.85
2022-08-05T00:18:22.500Z,1006.90
2022-08-05T00:19:15.832Z,1006.96
2022-08-05T00:20:15.823Z,1006.96
2022-08-05T00:21:15.807Z,1006.95
2022-08-05T00:22:15.800Z,1006.93
2022-08-05T00:23:15.787Z,1006.90
2022-08-05T00:24:18.965Z,1006.89
2022-08-05T00:25:15.757Z,1006.95
2022-08-05T00:26:16.468Z,1006.94
2022-08-05T00:27:16.646Z,1006.96
2022-08-05T00:28:15.715Z,1006.92
2022-08-05T00:29:15.710Z,1006.90
2022-08-05T00:30:15.703Z,1006.86
2022-08-05T00:31:15.679Z,1006.84
2022-08-05T00:32:15.878Z,1006.83
2022-08-05T00:34:55.704Z,1006.87
2022-08-05T00:34:56.930Z,1006.87
2022-08-05T00:35:15.634Z,1006.88
2022-08-05T00:36:37.721Z,1006.90
2022-08-05T00:37:15.601Z,1006.93
2022-08-05T00:38:15.585Z,1006.96
2022-08-05T00:39:15.679Z,1007.02
2022-08-05T00:40:17.869Z,1006.98
2022-08-05T00:41:15.548Z,1006.97
2022-08-05T00:42:31.403Z,1006.92
2022-08-05T00:43:15.538Z,1006.85
2022-08-05T00:44:15.516Z,1006.78
2022-08-05T00:45:15.500Z,1006.78
2022-08-05T00:46:15.484Z,1006.76
2022-08-05T00:47:16.484Z,1006.75
2022-08-05T00:48:15.463Z,1006.76
2022-08-05T00:49:15.445Z,1006.77
2022-08-05T00:50:15.433Z,1006.83
2022-08-05T00:51:51.080Z,1006.87
2022-08-05T00:52:15.404Z,1006.91
2022-08-05T00:53:45.114Z,1006.95
2022-08-05T00:54:15.379Z,1006.94
2022-08-05T00:55:15.367Z,1006.97
2022-08-05T00:56:17.302Z,1006.95
2022-08-05T00:57:15.439Z,1006.94
2022-08-05T00:58:15.325Z,1006.93
2022-08-05T00:59:15.326Z,1006.90
2022-08-05T01:00:15.307Z,1006.91
2022-08-05T01:01:15.389Z,1006.89
2022-08-05T01:02:15.273Z,1006.89
2022-08-05T01:03:23.082Z,1006.84
2022-08-05T01:04:15.747Z,1006.84
2022-08-05T01:05:15.234Z,1006.86
2022-08-05T01:06:15.543Z,1006.82
2022-08-05T01:07:15.315Z,1006.88
2022-08-05T01:08:39.169Z,1006.91
2022-08-05T01:09:15.182Z,1006.97
2022-08-05T01:10:15.164Z,1007.01
2022-08-05T01:11:22.646Z,1007.04
2022-08-05T01:12:18.023Z,1007.05
2022-08-05T01:13:19.422Z,1007.08
2022-08-05T01:14:15.616Z,1007.09
2022-08-05T01:15:35.489Z,1007.08
2022-08-05T01:16:15.090Z,1007.12
2022-08-05T01:17:15.113Z,1007.10
2022-08-05T01:18:15.062Z,1007.12
2022-08-05T01:19:15.055Z,1007.15
2022-08-05T01:20:15.033Z,1007.18
2022-08-05T01:21:22.797Z,1007.20
2022-08-05T01:22:15.633Z,1007.23
2022-08-05T01:23:23.405Z,1007.25
2022-08-05T01:24:14.985Z,1007.31
2022-08-05T01:25:14.981Z,1007.32
2022-08-05T01:26:14.955Z,1007.32
2022-08-05T01:27:32.918Z,1007.33
2022-08-05T01:28:14.927Z,1007.36
2022-08-05T01:29:14.914Z,1007.36
2022-08-05T01:30:18.911Z,1007.35
2022-08-05T01:31:14.891Z,1007.36
2022-08-05T01:32:18.574Z,1007.36
2022-08-05T01:33:14.862Z,1007.39
2022-08-05T01:34:14.852Z,1007.38
2022-08-05T01:35:51.195Z,1007.41
2022-08-05T01:36:16.164Z,1007.41
2022-08-05T01:37:24.727Z,1007.40
2022-08-05T01:38:14.794Z,1007.33
2022-08-05T01:39:14.834Z,1007.33
2022-08-05T01:40:14.769Z,1007.35
2022-08-05T01:41:14.774Z,1007.39
2022-08-05T01:42:15.216Z,1007.39
2022-08-05T01:43:22.067Z,1007.42
2022-08-05T01:44:15.360Z,1007.44
2022-08-05T01:45:14.707Z,1007.44
2022-08-05T01:46:16.243Z,1007.46
2022-08-05T01:47:14.679Z,1007.46
2022-08-05T01:48:14.661Z,1007.51
2022-08-05T01:49:23.765Z,1007.49
2022-08-05T01:50:15.627Z,1007.46
2022-08-05T01:51:14.618Z,1007.50
2022-08-05T01:52:17.574Z,1007.44
2022-08-05T01:53:14.586Z,1007.49
2022-08-05T01:54:14.577Z,1007.46
2022-08-05T01:55:14.568Z,1007.45
2022-08-05T01:58:10.899Z,1007.45
2022-08-05T01:58:11.345Z,1007.43
2022-08-05T01:58:15.749Z,1007.46
2022-08-05T01:59:14.511Z,1007.44
2022-08-05T02:00:14.500Z,1007.41
2022-08-05T02:01:14.608Z,1007.40
2022-08-05T02:02:15.791Z,1007.40
2022-08-05T02:03:16.319Z,1007.43
2022-08-05T02:04:14.442Z,1007.42
2022-08-05T02:05:14.427Z,1007.44
2022-08-05T02:06:37.523Z,1007.43
2022-08-05T02:07:21.955Z,1007.48
2022-08-05T02:08:14.388Z,1007.41
2022-08-05T02:09:14.615Z,1007.41
2022-08-05T02:10:14.368Z,1007.43
2022-08-05T02:11:14.349Z,1007.44
2022-08-05T02:12:14.333Z,1007.45
2022-08-05T02:13:16.295Z,1007.47
2022-08-05T02:14:14.309Z,1007.47
2022-08-05T02:15:14.297Z,1007.46
2022-08-05T02:16:16.389Z,1007.40
2022-08-05T02:17:23.487Z,1007.39
2022-08-05T02:18:31.857Z,1007.34
2022-08-05T02:19:14.242Z,1007.34
2022-08-05T02:20:14.227Z,1007.32
2022-08-05T02:21:15.151Z,1007.32
2022-08-05T02:22:25.529Z,1007.39
2022-08-05T02:23:14.902Z,1007.40
2022-08-05T02:24:14.166Z,1007.44
2022-08-05T02:25:14.153Z,1007.45
2022-08-05T02:26:14.141Z,1007.46
2022-08-05T02:27:14.130Z,1007.48
2022-08-05T02:28:14.115Z,1007.51
2022-08-05T02:29:21.399Z,1007.54
2022-08-05T02:30:14.083Z,1007.51
2022-08-05T02:31:14.916Z,1007.51
2022-08-05T02:32:19.834Z,1007.51
2022-08-05T02:33:14.047Z,1007.48
2022-08-05T02:34:14.032Z,1007.51
2022-08-05T02:35:14.521Z,1007.58
2022-08-05T02:36:15.364Z,1007.58
2022-08-05T02:37:13.993Z,1007.64
2022-08-05T02:38:19.145Z,1007.71
2022-08-05T02:39:14.090Z,1007.68
2022-08-05T02:40:13.942Z,1007.67
2022-08-05T02:41:17.156Z,1007.66
2022-08-05T02:42:27.633Z,1007.71
2022-08-05T02:43:13.907Z,1007.69
2022-08-05T02:44:13.898Z,1007.69
2022-08-05T02:45:13.875Z,1007.71
2022-08-05T02:46:16.321Z,1007.74
2022-08-05T02:47:13.849Z,1007.72
2022-08-05T02:48:13.831Z,1007.71
2022-08-05T02:49:13.823Z,1007.79
2022-08-05T02:50:13.806Z,1007.82
2022-08-05T02:51:13.792Z,1007.89
2022-08-05T02:52:30.148Z,1007.89
2022-08-05T02:53:18.675Z,1007.93
2022-08-05T02:54:35.667Z,1007.94
2022-08-05T02:55:13.738Z,1007.90
2022-08-05T02:56:16.093Z,1007.87
2022-08-05T02:58:12.295Z,1007.83
2022-08-05T02:58:13.813Z,1007.85
2022-08-05T02:59:13.682Z,1007.83
2022-08-05T03:00:13.670Z,1007.80
2022-08-05T03:01:13.692Z,1007.85
2022-08-05T03:02:13.635Z,1007.84
2022-08-05T03:03:13.622Z,1007.78
2022-08-05T03:04:14.411Z,1007.77
2022-08-05T03:05:13.598Z,1007.80
2022-08-05T03:06:55.446Z,1007.79
2022-08-05T03:07:24.601Z,1007.82
2022-08-05T03:08:13.840Z,1007.84
2022-08-05T03:09:15.743Z,1007.85
2022-08-05T03:10:13.531Z,1007.89
2022-08-05T03:11:54.694Z,1007.92
2022-08-05T03:12:13.494Z,1007.91
2022-08-05T03:13:16.651Z,1007.94
2022-08-05T03:14:13.847Z,1007.91
2022-08-05T03:15:13.459Z,1007.93
2022-08-05T03:16:15.795Z,1007.88
2022-08-05T03:17:13.431Z,1007.89
2022-08-05T03:18:13.417Z,1007.92
2022-08-05T03:19:20.380Z,1007.92
2022-08-05T03:20:13.847Z,1007.93
2022-08-05T03:21:13.372Z,1007.94
2022-08-05T03:22:16.613Z,1007.93
2022-08-05T03:23:13.346Z,1007.95
2022-08-05T03:24:13.437Z,1007.94
2022-08-05T03:26:03.485Z,1007.97
2022-08-05T03:26:30.913Z,1007.98
2022-08-05T03:27:13.289Z,1007.96
2022-08-05T03:28:14.110Z,1007.96
2022-08-05T03:29:13.258Z,1007.99
2022-08-05T03:30:13.241Z,1007.92
2022-08-05T03:31:18.321Z,1007.95
2022-08-05T03:32:14.264Z,1007.88
2022-08-05T03:33:13.203Z,1007.78
2022-08-05T03:34:13.185Z,1007.73
2022-08-05T03:35:13.174Z,1007.70
2022-08-05T03:36:13.156Z,1007.72
2022-08-05T03:37:13.148Z,1007.71
2022-08-05T03:38:14.414Z,1007.81
2022-08-05T03:39:20.079Z,1007.84
2022-08-05T03:40:13.220Z,1007.86
2022-08-05T03:41:13.094Z,1007.85
2022-08-05T03:42:13.073Z,1007.83
2022-08-05T03:43:58.646Z,1007.76
2022-08-05T03:44:13.044Z,1007.73
2022-08-05T03:45:22.197Z,1007.72
2022-08-05T03:46:13.020Z,1007.69
2022-08-05T03:47:13.632Z,1007.66
2022-08-05T03:48:12.991Z,1007.71
2022-08-05T03:49:12.979Z,1007.68
2022-08-05T03:50:12.958Z,1007.74
2022-08-05T03:52:49.112Z,1007.65
2022-08-05T03:52:50.202Z,1007.69
2022-08-05T03:55:49.808Z,1007.63
2022-08-05T03:55:52.303Z,1007.64
2022-08-05T03:56:04.879Z,1007.59
2022-08-05T03:56:26.800Z,1007.63
2022-08-05T03:57:16.344Z,1007.57
2022-08-05T03:58:12.847Z,1007.57
2022-08-05T03:59:12.834Z,1007.59
2022-08-05T04:00:16.046Z,1007.58
2022-08-05T04:01:13.418Z,1007.58
2022-08-05T04:02:17.324Z,1007.49
2022-08-05T04:03:14.909Z,1007.45
2022-08-05T04:04:12.766Z,1007.50
2022-08-05T04:05:12.751Z,1007.45
2022-08-05T04:06:12.735Z,1007.46
2022-08-05T04:07:12.723Z,1007.39
2022-08-05T04:08:14.326Z,1007.39
2022-08-05T04:09:12.695Z,1007.32
2022-08-05T04:10:12.689Z,1007.27
2022-08-05T04:11:12.661Z,1007.22
2022-08-05T04:12:23.679Z,1007.20
2022-08-05T04:13:12.641Z,1007.16
2022-08-05T04:14:18.159Z,1007.12
2022-08-05T04:15:15.573Z,1007.07
2022-08-05T04:16:12.594Z,1006.97
2022-08-05T04:17:12.582Z,1006.91
2022-08-05T04:18:22.510Z,1006.76
2022-08-05T04:19:12.550Z,1006.63
2022-08-05T04:20:12.534Z,1006.53
2022-08-05T04:21:12.522Z,1006.38
2022-08-05T04:22:12.506Z,1006.27
2022-08-05T04:23:16.169Z,1006.18
2022-08-05T04:24:19.203Z,1006.07
2022-08-05T04:25:12.469Z,1006.05
2022-08-05T04:26:12.450Z,1006.07
2022-08-05T04:27:12.441Z,1006.17
2022-08-05T04:28:12.928Z,1006.39
2022-08-05T04:29:12.412Z,1006.67
2022-08-05T04:30:12.403Z,1006.90
2022-08-05T04:31:12.378Z,1007.02
2022-08-05T04:32:12.368Z,1007.09
2022-08-05T04:33:12.355Z,1007.11
2022-08-05T04:34:18.639Z,1007.18
2022-08-05T04:35:17.391Z,1007.25
2022-08-05T04:36:38.623Z,1007.22
2022-08-05T04:37:21.013Z,1007.17
2022-08-05T04:38:12.275Z,1007.11
2022-08-05T04:39:12.388Z,1007.12
2022-08-05T04:40:12.251Z,1007.10
2022-08-05T04:41:12.242Z,1007.07
2022-08-05T04:42:12.229Z,1006.99
2022-08-05T04:43:16.660Z,1006.96
2022-08-05T04:44:12.192Z,1006.96
2022-08-05T04:45:12.179Z,1007.01
2022-08-05T04:46:12.165Z,1007.04
2022-08-05T04:47:15.797Z,1007.15
2022-08-05T04:48:18.684Z,1007.24
2022-08-05T04:49:14.915Z,1007.31
2022-08-05T04:50:12.108Z,1007.37
2022-08-05T04:51:12.099Z,1007.44
2022-08-05T04:52:12.080Z,1007.52
2022-08-05T04:53:12.066Z,1007.56
2022-08-05T04:54:12.322Z,1007.64
2022-08-05T04:55:14.286Z,1007.67
2022-08-05T04:56:33.192Z,1007.74
2022-08-05T04:57:12.011Z,1007.73
2022-08-05T04:58:12.451Z,1007.81
2022-08-05T04:59:22.429Z,1007.81
2022-08-05T05:00:11.970Z,1007.87
2022-08-05T05:01:12.007Z,1007.88
2022-08-05T05:02:36.282Z,1007.88
2022-08-05T05:03:12.053Z,1007.88
2022-08-05T05:04:11.907Z,1007.84
2022-08-05T05:05:16.907Z,1007.83
2022-08-05T05:06:36.067Z,1007.79
2022-08-05T05:07:11.861Z,1007.77
2022-08-05T05:08:14.394Z,1007.72
2022-08-05T05:09:14.265Z,1007.74
2022-08-05T05:10:11.822Z,1007.75
2022-08-05T05:11:11.803Z,1007.73
2022-08-05T05:12:11.871Z,1007.78
2022-08-05T05:13:11.777Z,1007.77
2022-08-05T05:14:16.000Z,1007.76
2022-08-05T05:15:11.758Z,1007.77
2022-08-05T05:16:11.751Z,1007.74
2022-08-05T05:17:11.718Z,1007.81
2022-08-05T05:18:11.703Z,1007.74
2022-08-05T05:19:19.177Z,1007.74
2022-08-05T05:20:11.675Z,1007.77
2022-08-05T05:21:11.659Z,1007.83
2022-08-05T05:22:24.533Z,1007.83
2022-08-05T05:23:19.607Z,1007.86
2022-08-05T05:24:11.617Z,1007.87
2022-08-05T05:25:16.586Z,1007.87
2022-08-05T05:26:11.585Z,1007.83
2022-08-05T05:27:11.574Z,1007.85
2022-08-05T05:28:11.553Z,1007.84
2022-08-05T05:29:14.694Z,1007.83
2022-08-05T05:30:15.709Z,1007.82
2022-08-05T05:31:11.515Z,1007.78
2022-08-05T05:32:12.727Z,1007.76
2022-08-05T05:33:17.169Z,1007.81
2022-08-05T05:34:11.468Z,1007.84
2022-08-05T05:35:11.455Z,1007.89
2022-08-05T05:36:11.436Z,1007.92
2022-08-05T05:37:11.426Z,1007.86
2022-08-05T05:38:12.832Z,1007.93
2022-08-05T05:39:11.393Z,1007.95
2022-08-05T05:40:11.381Z,1007.91
2022-08-05T05:41:12.258Z,1007.95
2022-08-05T05:42:11.351Z,1007.97
2022-08-05T05:43:11.337Z,1007.97
2022-08-05T05:44:35.445Z,1007.97
2022-08-05T05:45:11.316Z,1008.00
2022-08-05T05:46:15.687Z,1007.97
2022-08-05T05:47:21.350Z,1007.96
2022-08-05T05:48:11.263Z,1007.94
2022-08-05T05:49:23.110Z,1007.91
2022-08-05T05:50:11.234Z,1007.96
2022-08-05T05:51:15.865Z,1007.92
2022-08-05T05:52:13.304Z,1007.93
2022-08-05T05:53:21.235Z,1007.92
2022-08-05T05:54:11.535Z,1007.90
2022-08-05T05:55:13.652Z,1007.88
2022-08-05T05:56:11.143Z,1007.84
2022-08-05T05:57:13.755Z,1007.83
2022-08-05T05:58:11.115Z,1007.82
2022-08-05T05:59:11.101Z,1007.83
2022-08-05T06:00:11.094Z,1007.80
2022-08-05T06:01:13.258Z,1007.79
2022-08-05T06:02:11.059Z,1007.74
2022-08-05T06:03:40.096Z,1007.76
2022-08-05T06:04:11.794Z,1007.75
2022-08-05T06:05:16.471Z,1007.76
2022-08-05T06:06:11.004Z,1007.77
2022-08-05T06:07:10.986Z,1007.77
2022-08-05T06:08:10.970Z,1007.79
2022-08-05T06:09:24.549Z,1007.87
2022-08-05T06:10:10.942Z,1007.90
2022-08-05T06:11:10.924Z,1007.95
2022-08-05T06:12:12.120Z,1007.98
2022-08-05T06:13:10.897Z,1008.00
2022-08-05T06:14:10.882Z,1008.03
2022-08-05T06:15:16.452Z,1008.00
2022-08-05T06:16:29.970Z,1007.99
2022-08-05T06:17:32.254Z,1007.95
2022-08-05T06:18:10.825Z,1007.96
2022-08-05T06:19:10.810Z,1007.98
2022-08-05T06:20:18.822Z,1008.00
2022-08-05T06:21:18.680Z,1008.03
2022-08-05T06:22:10.770Z,1008.03
2022-08-05T06:23:10.757Z,1008.08
2022-08-05T06:24:11.736Z,1008.14
2022-08-05T06:25:24.479Z,1008.15
2022-08-05T06:26:20.809Z,1008.18
2022-08-05T06:27:17.276Z,1008.17
2022-08-05T06:28:21.606Z,1008.14
2022-08-05T06:29:25.063Z,1008.14
2022-08-05T06:30:16.931Z,1008.14
2022-08-05T06:31:11.053Z,1008.11
2022-08-05T06:32:17.277Z,1008.09
2022-08-05T06:33:10.854Z,1008.07
2022-08-05T06:34:10.589Z,1008.14
2022-08-05T06:35:15.526Z,1008.10
2022-08-05T06:36:10.558Z,1008.11
2022-08-05T06:37:10.549Z,1008.08
2022-08-05T06:38:11.622Z,1008.05
2022-08-05T06:39:10.573Z,1008.03
2022-08-05T06:40:10.513Z,1008.01
2022-08-05T06:41:11.606Z,1007.95
2022-08-05T06:42:10.472Z,1007.97
2022-08-05T06:43:58.000Z,1008.00
2022-08-05T06:44:10.444Z,1008.02
2022-08-05T06:45:10.430Z,1008.07
2022-08-05T06:46:10.410Z,1008.07
2022-08-05T06:47:29.895Z,1008.09
2022-08-05T06:48:37.015Z,1008.14
2022-08-05T06:49:10.374Z,1008.11
2022-08-05T06:50:10.354Z,1008.09
2022-08-05T06:51:22.732Z,1008.11
2022-08-05T06:52:36.908Z,1008.09
2022-08-05T06:53:19.526Z,1008.05
2022-08-05T06:54:10.296Z,1008.05
2022-08-05T06:55:10.285Z,1008.07
2022-08-05T06:56:11.660Z,1008.06
2022-08-05T06:57:58.118Z,1008.08
2022-08-05T06:58:19.899Z,1008.08
2022-08-05T06:59:11.901Z,1008.11
2022-08-05T07:00:10.214Z,1008.16
2022-08-05T07:01:10.235Z,1008.17
2022-08-05T07:02:10.181Z,1008.21
2022-08-05T07:03:10.166Z,1008.21
2022-08-05T07:04:10.162Z,1008.21
2022-08-05T07:05:14.258Z,1008.23
2022-08-05T07:06:14.302Z,1008.20
2022-08-05T07:07:10.118Z,1008.21
2022-08-05T07:08:11.117Z,1008.23
2022-08-05T07:09:10.075Z,1008.20
2022-08-05T07:10:10.070Z,1008.19
2022-08-05T07:11:15.522Z,1008.17
2022-08-05T07:12:10.037Z,1008.17
2022-08-05T07:13:10.063Z,1008.13
2022-08-05T07:14:20.010Z,1008.15
2022-08-05T07:15:09.989Z,1008.15
2022-08-05T07:16:12.096Z,1008.16
2022-08-05T07:17:58.332Z,1008.17
2022-08-05T07:18:14.644Z,1008.14
2022-08-05T07:19:09.940Z,1008.24
2022-08-05T07:20:32.920Z,1008.26
2022-08-05T07:21:09.903Z,1008.26
2022-08-05T07:22:09.889Z,1008.28
2022-08-05T07:23:09.872Z,1008.33
2022-08-05T07:24:11.463Z,1008.40
2022-08-05T07:25:23.981Z,1008.42
2022-08-05T07:26:09.827Z,1008.46
2022-08-05T07:27:09.815Z,1008.51
2022-08-05T07:28:17.096Z,1008.56
2022-08-05T07:29:09.782Z,1008.69
2022-08-05T07:30:30.181Z,1008.72
2022-08-05T07:31:09.757Z,1008.81
2022-08-05T07:32:09.736Z,1008.89
2022-08-05T07:33:10.675Z,1008.99
2022-08-05T07:34:09.710Z,1009.08
2022-08-05T07:36:01.625Z,1009.13
2022-08-05T07:36:20.627Z,1009.22
2022-08-05T07:37:11.716Z,1009.20
2022-08-05T07:38:12.467Z,1009.25
2022-08-05T07:39:24.622Z,1009.21
2022-08-05T07:40:32.677Z,1009.18
2022-08-05T07:42:07.098Z,1009.11
2022-08-05T07:42:14.949Z,1008.98
2022-08-05T07:43:14.787Z,1008.95
2022-08-05T07:44:18.912Z,1008.87
2022-08-05T07:45:09.551Z,1008.90
2022-08-05T07:46:23.463Z,1008.92
2022-08-05T07:47:10.186Z,1008.89
2022-08-05T07:48:09.507Z,1008.91
2022-08-05T07:49:09.490Z,1008.85
2022-08-05T07:50:09.475Z,1008.84
2022-08-05T07:51:23.848Z,1008.82
2022-08-05T07:52:09.451Z,1008.79
2022-08-05T07:53:09.427Z,1008.75
2022-08-05T07:54:09.805Z,1008.78
2022-08-05T07:55:15.907Z,1008.81
2022-08-05T07:57:00.474Z,1008.82
2022-08-05T07:57:22.406Z,1008.80
2022-08-05T07:58:09.755Z,1008.75
2022-08-05T07:59:09.344Z,1008.66
2022-08-05T08:00:11.429Z,1008.60
2022-08-05T08:01:12.127Z,1008.62
2022-08-05T08:02:10.669Z,1008.57
2022-08-05T08:03:15.004Z,1008.57
2022-08-05T08:04:09.266Z,1008.60
2022-08-05T08:05:09.252Z,1008.65
2022-08-05T08:06:09.240Z,1008.62
2022-08-05T08:07:09.220Z,1008.68
2022-08-05T08:08:12.457Z,1008.69
2022-08-05T08:09:09.201Z,1008.81
2022-08-05T08:10:09.179Z,1008.87
2022-08-05T08:11:09.163Z,1009.01
2022-08-05T08:12:35.429Z,1009.15
2022-08-05T08:13:09.136Z,1009.31
2022-08-05T08:14:09.125Z,1009.46
2022-08-05T08:15:14.310Z,1009.63
2022-08-05T08:16:35.426Z,1009.71
2022-08-05T08:17:09.075Z,1009.77
2022-08-05T08:18:13.868Z,1009.71
2022-08-05T08:19:09.050Z,1009.59
2022-08-05T08:20:43.642Z,1009.41
2022-08-05T08:21:09.690Z,1009.29
2022-08-05T08:22:09.194Z,1009.16
2022-08-05T08:23:59.683Z,1009.17
2022-08-05T08:24:13.781Z,1009.16
2022-08-05T08:25:16.194Z,1009.19
2022-08-05T08:26:08.950Z,1009.30
2022-08-05T08:27:08.942Z,1009.33
2022-08-05T08:28:18.359Z,1009.34
2022-08-05T08:29:45.188Z,1009.38
2022-08-05T08:30:27.630Z,1009.41
2022-08-05T08:31:08.873Z,1009.38
2022-08-05T08:32:10.846Z,1009.33
2022-08-05T08:33:08.849Z,1009.27
2022-08-05T08:34:08.828Z,1009.26
2022-08-05T08:35:13.669Z,1009.24
2022-08-05T08:37:08.831Z,1009.21
2022-08-05T08:38:16.264Z,1009.23
2022-08-05T08:39:15.577Z,1009.22
2022-08-05T08:40:08.743Z,1009.22
2022-08-05T08:41:08.840Z,1009.22
2022-08-05T08:42:32.530Z,1009.21
2022-08-05T08:45:17.109Z,1009.24
2022-08-05T08:45:18.773Z,1009.30
2022-08-05T08:45:21.153Z,1009.27
2022-08-05T08:46:09.950Z,1009.31
2022-08-05T08:47:21.785Z,1009.36
2022-08-05T08:48:22.314Z,1009.29
2022-08-05T08:50:14.490Z,1009.33
2022-08-05T08:50:30.710Z,1009.34
2022-08-05T08:52:02.348Z,1009.41
2022-08-05T08:52:13.652Z,1009.48
2022-08-05T08:53:12.310Z,1009.48
2022-08-05T08:54:08.540Z,1009.50
2022-08-05T08:55:13.042Z,1009.47
2022-08-05T08:56:08.505Z,1009.44
2022-08-05T08:57:11.308Z,1009.45
2022-08-05T08:58:08.675Z,1009.43
2022-08-05T08:59:14.673Z,1009.47
2022-08-05T09:00:08.444Z,1009.45
2022-08-05T09:01:11.048Z,1009.50
2022-08-05T09:02:08.823Z,1009.53
2022-08-05T09:03:08.407Z,1009.57
2022-08-05T09:04:10.661Z,1009.59
2022-08-05T09:05:17.643Z,1009.56
2022-08-05T09:06:11.064Z,1009.56
2022-08-05T09:07:10.678Z,1009.60
2022-08-05T09:08:09.747Z,1009.59
2022-08-05T09:09:08.321Z,1009.56
2022-08-05T09:10:08.303Z,1009.58
2022-08-05T09:11:08.286Z,1009.61
2022-08-05T09:12:20.068Z,1009.65
2022-08-05T09:13:08.289Z,1009.70
2022-08-05T09:14:54.095Z,1009.70
2022-08-05T09:15:08.238Z,1009.74
2022-08-05T09:16:08.216Z,1009.75
2022-08-05T09:17:09.427Z,1009.76
2022-08-05T09:18:08.885Z,1009.70
2022-08-05T09:19:08.169Z,1009.74
2022-08-05T09:20:08.524Z,1009.72
2022-08-05T09:21:11.519Z,1009.75
2022-08-05T09:22:22.290Z,1009.76
2022-08-05T09:23:09.447Z,1009.78
2022-08-05T09:24:08.097Z,1009.74
2022-08-05T09:25:23.827Z,1009.72
2022-08-05T09:26:09.235Z,1009.73
2022-08-05T09:27:08.051Z,1009.74
2022-08-05T09:28:08.039Z,1009.76
2022-08-05T09:29:08.854Z,1009.80
2022-08-05T09:30:08.005Z,1009.82
2022-08-05T09:31:22.151Z,1009.79
2022-08-05T09:32:41.398Z,1009.83
2022-08-05T09:33:07.975Z,1009.87
2022-08-05T09:34:09.917Z,1009.85
2022-08-05T09:35:07.940Z,1009.87
2022-08-05T09:36:11.719Z,1009.92
2022-08-05T09:37:15.241Z,1009.94
2022-08-05T09:38:12.391Z,1009.91
2022-08-05T09:39:18.076Z,1009.93
2022-08-05T09:40:07.922Z,1009.96
2022-08-05T09:41:08.144Z,1010.00
2022-08-05T09:42:07.934Z,1010.04
2022-08-05T09:43:08.481Z,1010.09
2022-08-05T09:44:07.812Z,1010.08
2022-08-05T09:46:04.884Z,1010.10
2022-08-05T09:46:08.940Z,1010.10
2022-08-05T09:47:10.409Z,1010.07
2022-08-05T09:48:07.744Z,1010.09
2022-08-05T09:49:19.455Z,1010.11
2022-08-05T09:50:08.325Z,1010.13
2022-08-05T09:51:14.772Z,1010.12
2022-08-05T09:52:07.688Z,1010.09
2022-08-05T09:53:08.749Z,1010.16
2022-08-05T09:54:07.656Z,1010.22
2022-08-05T09:55:57.168Z,1010.25
2022-08-05T09:56:13.184Z,1010.26
2022-08-05T09:57:23.325Z,1010.27
2022-08-05T09:58:07.607Z,1010.24
2022-08-05T09:59:07.587Z,1010.26
2022-08-05T10:00:07.883Z,1010.25
2022-08-05T10:01:14.616Z,1010.27
2022-08-05T10:02:07.543Z,1010.27
2022-08-05T10:03:07.601Z,1010.27
2022-08-05T10:04:10.572Z,1010.25
2022-08-05T10:05:07.873Z,1010.28
2022-08-05T10:06:07.798Z,1010.27
2022-08-05T10:07:20.310Z,1010.28
2022-08-05T10:08:35.740Z,1010.30
2022-08-05T10:09:07.458Z,1010.35
2022-08-05T10:10:15.150Z,1010.39
2022-08-05T10:11:07.417Z,1010.42
2022-08-05T10:12:18.629Z,1010.40
2022-08-05T10:13:09.807Z,1010.43
2022-08-05T10:14:07.367Z,1010.39
2022-08-05T10:15:07.356Z,1010.41
2022-08-05T10:16:07.340Z,1010.41
2022-08-05T10:17:07.331Z,1010.41
2022-08-05T10:18:07.315Z,1010.34
2022-08-05T10:19:09.456Z,1010.38
2022-08-05T10:20:09.955Z,1010.38
2022-08-05T10:21:11.691Z,1010.38
2022-08-05T10:22:07.260Z,1010.36
2022-08-05T10:23:08.923Z,1010.40
2022-08-05T10:24:10.795Z,1010.42
2022-08-05T10:25:07.217Z,1010.45
2022-08-05T10:26:07.322Z,1010.48
2022-08-05T10:27:07.598Z,1010.48
2022-08-05T10:28:13.936Z,1010.51
2022-08-05T10:29:07.161Z,1010.51
2022-08-05T10:31:20.393Z,1010.52
2022-08-05T10:32:47.307Z,1010.51
2022-08-05T10:32:53.762Z,1010.51
2022-08-05T10:33:07.420Z,1010.47
2022-08-05T10:34:08.132Z,1010.55
2022-08-05T10:35:07.081Z,1010.56
2022-08-05T10:36:07.062Z,1010.65
2022-08-05T10:37:07.045Z,1010.69
2022-08-05T10:38:08.326Z,1010.71
2022-08-05T10:39:10.437Z,1010.79
2022-08-05T10:40:17.867Z,1010.79
2022-08-05T10:41:07.030Z,1010.80
2022-08-05T10:42:06.976Z,1010.82
2022-08-05T10:43:06.964Z,1010.83
2022-08-05T10:44:07.028Z,1010.81
2022-08-05T10:45:09.587Z,1010.85
2022-08-05T10:46:07.221Z,1010.85
2022-08-05T10:47:10.241Z,1010.88
2022-08-05T10:48:31.127Z,1010.90
2022-08-05T10:49:10.004Z,1010.90
2022-08-05T10:50:33.080Z,1010.92
2022-08-05T10:51:22.074Z,1010.96
2022-08-05T10:52:10.492Z,1010.99
2022-08-05T10:53:06.824Z,1010.97
2022-08-05T10:54:28.202Z,1010.96
2022-08-05T10:55:06.802Z,1010.97
2022-08-05T10:56:14.513Z,1011.04
2022-08-05T10:57:06.775Z,1011.04
2022-08-05T10:58:06.756Z,1011.08
2022-08-05T10:59:12.154Z,1011.06
2022-08-05T11:00:09.979Z,1011.09
2022-08-05T11:01:06.728Z,1011.11
2022-08-05T11:02:06.798Z,1011.09
2022-08-05T11:03:23.424Z,1011.13
2022-08-05T11:04:06.680Z,1011.16
2022-08-05T11:05:06.667Z,1011.18
2022-08-05T11:06:14.525Z,1011.22
2022-08-05T11:07:06.656Z,1011.18
2022-08-05T11:08:21.686Z,1011.21
2022-08-05T11:09:06.614Z,1011.14
2022-08-05T11:10:09.838Z,1011.20
2022-08-05T11:11:14.631Z,1011.21
2022-08-05T11:12:06.574Z,1011.22
2022-08-05T11:13:06.556Z,1011.30
2022-08-05T11:14:06.576Z,1011.32
2022-08-05T11:15:19.810Z,1011.33
2022-08-05T11:16:06.514Z,1011.33
2022-08-05T11:17:59.654Z,1011.35
2022-08-05T11:18:06.501Z,1011.39
2022-08-05T11:20:11.093Z,1011.43
2022-08-05T11:20:15.739Z,1011.44
2022-08-05T11:21:11.785Z,1011.44
2022-08-05T11:22:06.444Z,1011.49
2022-08-05T11:23:10.469Z,1011.45
2022-08-05T11:24:14.767Z,1011.42
2022-08-05T11:26:03.386Z,1011.44
2022-08-05T11:26:09.208Z,1011.44
2022-08-05T11:27:06.374Z,1011.56
2022-08-05T11:28:06.370Z,1011.50
2022-08-05T11:29:13.026Z,1011.46
2022-08-05T11:30:06.335Z,1011.45
2022-08-05T11:31:06.848Z,1011.47
2022-08-05T11:32:06.310Z,1011.49
2022-08-05T11:33:06.303Z,1011.58
2022-08-05T11:34:06.293Z,1011.60
2022-08-05T11:35:06.273Z,1011.52
2022-08-05T11:36:08.620Z,1011.51
2022-08-05T11:38:30.693Z,1011.39
2022-08-05T11:38:36.741Z,1011.44
2022-08-05T11:39:06.277Z,1011.40
2022-08-05T11:40:06.215Z,1011.36
2022-08-05T11:41:35.123Z,1011.36
2022-08-05T11:42:06.191Z,1011.36
2022-08-05T11:43:06.180Z,1011.39
2022-08-05T11:44:08.308Z,1011.40
2022-08-05T11:45:06.162Z,1011.42
2022-08-05T11:46:27.214Z,1011.42
2022-08-05T11:47:14.157Z,1011.39
2022-08-05T11:48:06.122Z,1011.40
2022-08-05T11:49:06.117Z,1011.46
2022-08-05T11:50:06.096Z,1011.50
2022-08-05T11:51:06.095Z,1011.48
2022-08-05T11:52:11.173Z,1011.45
2022-08-05T11:53:06.376Z,1011.41
2022-08-05T11:54:06.057Z,1011.46
2022-08-05T11:55:07.322Z,1011.50
2022-08-05T11:56:06.042Z,1011.47
2022-08-05T11:57:08.196Z,1011.49
2022-08-05T11:58:10.968Z,1011.55
2022-08-05T11:59:05.997Z,1011.56
2022-08-05T12:00:06.079Z,1011.63
2022-08-05T12:01:08.319Z,1011.56
2022-08-05T12:02:05.960Z,1011.51
2022-08-05T12:03:05.977Z,1011.59
2022-08-05T12:04:05.940Z,1011.57
2022-08-05T12:05:06.816Z,1011.55
2022-08-05T12:06:10.048Z,1011.55